createdAt,value
2023-01-31T00:00:35.370Z,1.1
2023-01-31T00:01:44.050Z,1.3
2023-01-31T00:02:53.641Z,0.8
2023-01-31T00:04:02.299Z,0.9
2023-01-31T00:05:12.003Z,0.8
2023-01-31T00:06:20.699Z,0.9
2023-01-31T00:07:29.359Z,0.9
2023-01-31T00:08:39.546Z,1
2023-01-31T00:09:48.745Z,0.8
2023-01-31T00:10:56.379Z,1.1
2023-01-31T00:12:06.081Z,0.9
2023-01-31T00:13:13.729Z,1.4
2023-01-31T00:14:23.407Z,0.9
2023-01-31T00:15:33.166Z,1.2
2023-01-31T00:16:40.877Z,1.2
2023-01-31T00:17:49.555Z,0.8
2023-01-31T00:18:59.225Z,1.2
2023-01-31T00:20:07.900Z,1.4
2023-01-31T00:21:17.602Z,1
2023-01-31T00:22:26.283Z,1.1
2023-01-31T00:23:36.127Z,1.3
2023-01-31T00:24:45.723Z,1
2023-01-31T00:25:54.354Z,1.1
2023-01-31T00:27:04.060Z,1
2023-01-31T00:28:13.849Z,1.1
2023-01-31T00:29:21.555Z,0.9
2023-01-31T00:30:31.223Z,0.8
2023-01-31T00:31:40.200Z,1.1
2023-01-31T00:32:47.769Z,1.1
2023-01-31T00:33:57.429Z,0.9
2023-01-31T00:35:05.199Z,0.9
2023-01-31T00:36:13.867Z,0.8
2023-01-31T00:37:22.522Z,0.7
2023-01-31T00:38:30.199Z,1
2023-01-31T00:39:38.881Z,0.7
2023-01-31T00:40:47.595Z,0.9
2023-01-31T00:41:57.256Z,0.9
2023-01-31T00:43:06.915Z,0.8
2023-01-31T00:44:15.586Z,1.1
2023-01-31T00:45:24.261Z,0.9
2023-01-31T00:46:34.631Z,1.1
2023-01-31T00:47:42.694Z,1.2
2023-01-31T00:48:52.369Z,1
2023-01-31T00:50:01.024Z,0.6
2023-01-31T00:51:08.730Z,0.9
2023-01-31T00:52:18.532Z,1.2
2023-01-31T00:53:27.282Z,0.9
2023-01-31T00:54:36.486Z,0.9
2023-01-31T00:55:45.595Z,0.9
2023-01-31T00:56:53.264Z,1.1
2023-01-31T00:58:02.962Z,0.9
2023-01-31T00:59:12.639Z,0.9
2023-01-31T01:00:20.309Z,0.7
2023-01-31T01:01:29.990Z,0.9
2023-01-31T01:02:38.792Z,0.9
2023-01-31T01:03:48.532Z,1
2023-01-31T01:04:58.233Z,0.8
2023-01-31T01:06:07.867Z,1
2023-01-31T01:07:17.569Z,1.2
2023-01-31T01:08:25.197Z,1
2023-01-31T01:09:34.291Z,1
2023-01-31T01:10:43.595Z,1.1
2023-01-31T01:11:51.312Z,1
2023-01-31T01:13:00.986Z,0.9
2023-01-31T01:14:10.669Z,1
2023-01-31T01:15:19.636Z,1
2023-01-31T01:16:29.180Z,1
2023-01-31T01:17:38.794Z,0.9
2023-01-31T01:18:48.503Z,1
2023-01-31T01:19:58.171Z,0.7
2023-01-31T01:21:06.905Z,1
2023-01-31T01:22:16.552Z,1
2023-01-31T01:23:26.214Z,0.9
2023-01-31T01:24:34.900Z,0.9
2023-01-31T01:25:44.589Z,0.8
2023-01-31T01:26:53.308Z,1.1
2023-01-31T01:28:00.998Z,0.8
2023-01-31T01:29:10.697Z,1
2023-01-31T01:30:19.414Z,1.5
2023-01-31T01:31:28.190Z,1.1
2023-01-31T01:32:37.788Z,1.2
2023-01-31T01:33:45.441Z,0.9
2023-01-31T01:34:55.111Z,1.3
2023-01-31T01:36:03.843Z,1.4
2023-01-31T01:37:11.567Z,0.8
2023-01-31T01:38:21.240Z,1.2
2023-01-31T01:39:30.414Z,1
2023-01-31T01:40:39.597Z,0.8
2023-01-31T01:41:49.267Z,0.9
2023-01-31T01:42:57.975Z,1
2023-01-31T01:44:07.709Z,1.2
2023-01-31T01:45:19.358Z,1.2
2023-01-31T01:46:28.305Z,1
2023-01-31T01:47:37.783Z,0.7
2023-01-31T01:48:46.660Z,1
2023-01-31T01:49:56.396Z,1
2023-01-31T01:51:06.073Z,1
2023-01-31T01:52:13.805Z,1
2023-01-31T01:53:23.448Z,0.9
2023-01-31T01:54:32.487Z,0.7
2023-01-31T01:55:41.182Z,1.2
2023-01-31T01:56:50.926Z,1.3
2023-01-31T01:57:58.591Z,0.9
2023-01-31T01:59:07.300Z,0.9
2023-01-31T02:00:16.953Z,0.8
2023-01-31T02:01:24.737Z,1.2
2023-01-31T02:02:34.408Z,1
2023-01-31T02:03:43.076Z,0.9
2023-01-31T02:04:51.754Z,0.9
2023-01-31T02:06:01.406Z,1.1
2023-01-31T02:07:11.122Z,1.1
2023-01-31T02:08:20.819Z,1.3
2023-01-31T02:09:30.448Z,1.3
2023-01-31T02:10:40.096Z,1
2023-01-31T02:11:49.768Z,1.3
2023-01-31T02:12:58.540Z,1.3
2023-01-31T02:14:08.228Z,1.1
2023-01-31T02:15:16.882Z,1.2
2023-01-31T02:16:26.896Z,1.2
2023-01-31T02:17:34.211Z,1.2
2023-01-31T02:18:42.947Z,1.2
2023-01-31T02:19:51.626Z,1.2
2023-01-31T02:21:00.301Z,1.2
2023-01-31T02:22:09.984Z,1.1
2023-01-31T02:23:19.643Z,1
2023-01-31T02:24:28.348Z,1.2
2023-01-31T02:25:38.004Z,1.3
2023-01-31T02:26:45.742Z,1.3
2023-01-31T02:27:55.365Z,1
2023-01-31T02:29:05.048Z,1.3
2023-01-31T02:30:12.787Z,1.1
2023-01-31T02:31:21.473Z,1.6
2023-01-31T02:32:30.182Z,1.5
2023-01-31T02:33:38.875Z,1.4
2023-01-31T02:34:48.699Z,1.2
2023-01-31T02:35:57.370Z,0.9
2023-01-31T02:37:07.056Z,1
2023-01-31T02:38:15.737Z,1.1
2023-01-31T02:39:24.403Z,1.3
2023-01-31T02:40:34.099Z,1.5
2023-01-31T02:41:42.916Z,1.1
2023-01-31T02:42:51.563Z,1.6
2023-01-31T02:44:01.246Z,1.5
2023-01-31T02:45:08.920Z,1.1
2023-01-31T02:46:18.626Z,1.1
2023-01-31T02:47:27.331Z,1.3
2023-01-31T02:48:37.016Z,1
2023-01-31T02:49:46.701Z,0.9
2023-01-31T02:50:54.365Z,1.2
2023-01-31T02:52:03.046Z,1
2023-01-31T02:53:12.753Z,1.5
2023-01-31T02:54:21.440Z,1.1
2023-01-31T02:55:31.124Z,1.6
2023-01-31T02:56:40.841Z,1.3
2023-01-31T02:57:48.484Z,1.2
2023-01-31T02:58:58.254Z,1.2
2023-01-31T03:00:07.943Z,1.3
2023-01-31T03:01:17.638Z,1.1
2023-01-31T03:02:27.361Z,1.2
2023-01-31T03:03:36.582Z,1.2
2023-01-31T03:04:45.734Z,1.2
2023-01-31T03:05:55.417Z,1
2023-01-31T03:07:03.096Z,1.3
2023-01-31T03:08:12.769Z,1.3
2023-01-31T03:09:22.091Z,1.4
2023-01-31T03:10:31.221Z,1.1
2023-01-31T03:11:40.923Z,0.9
2023-01-31T03:12:49.624Z,1.5
2023-01-31T03:13:59.281Z,1.4
2023-01-31T03:15:07.961Z,1.1
2023-01-31T03:16:15.646Z,1.2
2023-01-31T03:17:25.327Z,1.3
2023-01-31T03:18:34.033Z,1.2
2023-01-31T03:19:42.703Z,1
2023-01-31T03:20:52.365Z,1
2023-01-31T03:22:00.094Z,1.5
2023-01-31T03:23:09.735Z,1.4
2023-01-31T03:24:19.395Z,1.2
2023-01-31T03:25:27.091Z,1.2
2023-01-31T03:26:36.911Z,1.1
2023-01-31T03:27:45.535Z,1.2
2023-01-31T03:28:55.265Z,1.1
2023-01-31T03:30:03.917Z,1
2023-01-31T03:31:12.699Z,1
2023-01-31T03:32:22.279Z,0.9
2023-01-31T03:33:32.581Z,1
2023-01-31T03:34:40.739Z,1.2
2023-01-31T03:35:50.437Z,1
2023-01-31T03:36:58.110Z,0.9
2023-01-31T03:38:06.794Z,1.3
2023-01-31T03:39:16.499Z,0.9
2023-01-31T03:40:26.181Z,0.9
2023-01-31T03:41:36.027Z,1.1
2023-01-31T03:42:45.575Z,1
2023-01-31T03:43:55.340Z,1
2023-01-31T03:45:05.193Z,0.9
2023-01-31T03:46:15.185Z,1.1
2023-01-31T03:47:23.743Z,1.3
2023-01-31T03:48:32.620Z,1.1
2023-01-31T03:49:42.088Z,1
2023-01-31T03:50:51.827Z,1.1
2023-01-31T03:52:00.581Z,1
2023-01-31T03:53:10.264Z,0.9
2023-01-31T03:54:19.983Z,1
2023-01-31T03:55:28.654Z,1.1
2023-01-31T03:56:38.397Z,1.1
2023-01-31T03:57:48.055Z,1
2023-01-31T03:58:57.745Z,0.7
2023-01-31T04:00:07.424Z,1.2
2023-01-31T04:01:15.315Z,1
2023-01-31T04:02:23.842Z,0.8
2023-01-31T04:03:33.531Z,1
2023-01-31T04:04:42.201Z,1.3
2023-01-31T04:05:50.929Z,1.2
2023-01-31T04:07:00.582Z,0.8
2023-01-31T04:08:10.286Z,0.7
2023-01-31T04:09:22.112Z,1
2023-01-31T04:10:28.621Z,1.1
2023-01-31T04:11:38.298Z,0.9
2023-01-31T04:12:47.979Z,1.1
2023-01-31T04:13:57.680Z,1.2
2023-01-31T04:15:07.344Z,1.4
2023-01-31T04:16:17.070Z,1.6
2023-01-31T04:17:25.721Z,1.6
2023-01-31T04:18:37.673Z,1.4
2023-01-31T04:19:46.110Z,1.3
2023-01-31T04:20:53.786Z,1.4
2023-01-31T04:22:02.474Z,1.2
2023-01-31T04:23:12.782Z,1.2
2023-01-31T04:24:20.856Z,1.1
2023-01-31T04:25:32.743Z,1.1
2023-01-31T04:26:39.274Z,1
2023-01-31T04:27:48.936Z,1.2
2023-01-31T04:28:58.636Z,1.1
2023-01-31T04:30:06.315Z,0.9
2023-01-31T04:31:16.156Z,0.9
2023-01-31T04:32:25.775Z,1.2
2023-01-31T04:33:33.474Z,0.8
2023-01-31T04:34:43.128Z,1.1
2023-01-31T04:35:51.778Z,1.5
2023-01-31T04:37:01.516Z,1
2023-01-31T04:38:11.230Z,1
2023-01-31T04:39:19.884Z,1.1
2023-01-31T04:40:28.546Z,1.1
2023-01-31T04:41:38.206Z,1.2
2023-01-31T04:42:46.917Z,0.7
2023-01-31T04:43:56.624Z,1.2
2023-01-31T04:45:05.385Z,1
2023-01-31T04:46:14.052Z,1.2
2023-01-31T04:47:23.787Z,1.4
2023-01-31T04:48:33.497Z,1.2
2023-01-31T04:49:43.236Z,0.7
2023-01-31T04:50:52.962Z,1.1
2023-01-31T04:52:01.625Z,0.9
2023-01-31T04:53:11.360Z,0.9
2023-01-31T04:54:21.069Z,1.1
2023-01-31T04:55:28.775Z,1.4
2023-01-31T04:56:38.461Z,0.9
2023-01-31T04:57:47.178Z,1.1
2023-01-31T04:58:57.108Z,1
2023-01-31T05:00:07.384Z,1
2023-01-31T05:01:14.568Z,1.4
2023-01-31T05:02:24.239Z,0.7
2023-01-31T05:03:33.006Z,1
2023-01-31T05:04:41.551Z,1.1
2023-01-31T05:05:51.326Z,1.1
2023-01-31T05:07:00.979Z,1.1
2023-01-31T05:08:09.648Z,1.1
2023-01-31T05:09:19.319Z,1.2
2023-01-31T05:10:29.040Z,0.9
2023-01-31T05:11:38.778Z,1.3
2023-01-31T05:12:47.476Z,1
2023-01-31T05:13:56.176Z,1.1
2023-01-31T05:15:07.052Z,1.4
2023-01-31T05:16:15.556Z,0.8
2023-01-31T05:17:24.288Z,0.9
2023-01-31T05:18:33.954Z,1
2023-01-31T05:19:43.638Z,1.3
2023-01-31T05:20:53.367Z,1
2023-01-31T05:22:02.102Z,1
2023-01-31T05:23:10.754Z,0.9
2023-01-31T05:24:20.414Z,1.3
2023-01-31T05:25:29.090Z,0.9
2023-01-31T05:26:37.812Z,1.3
2023-01-31T05:27:47.448Z,0.8
2023-01-31T05:28:56.153Z,1
2023-01-31T05:30:05.871Z,1.3
2023-01-31T05:31:15.683Z,1.1
2023-01-31T05:32:25.303Z,1.3
2023-01-31T05:33:35.027Z,1.3
2023-01-31T05:34:42.716Z,1.1
2023-01-31T05:35:50.393Z,1.1
2023-01-31T05:37:00.126Z,1
2023-01-31T05:38:07.779Z,1.4
2023-01-31T05:39:17.460Z,1.1
2023-01-31T05:40:27.206Z,1.4
2023-01-31T05:41:34.864Z,1.1
2023-01-31T05:42:44.544Z,1.4
2023-01-31T05:43:53.240Z,1.1
2023-01-31T05:45:01.497Z,1.1
2023-01-31T05:46:10.663Z,0.9
2023-01-31T05:47:19.237Z,1.1
2023-01-31T05:48:28.935Z,1.1
2023-01-31T05:49:37.587Z,0.9
2023-01-31T05:50:46.255Z,1
2023-01-31T05:51:55.957Z,1
2023-01-31T05:53:05.644Z,1
2023-01-31T05:54:14.289Z,1
2023-01-31T05:55:24.005Z,1.1
2023-01-31T05:56:32.670Z,1.1
2023-01-31T05:57:42.353Z,1.1
2023-01-31T05:58:51.030Z,1
2023-01-31T06:00:01.187Z,0.9
2023-01-31T06:01:10.351Z,1
2023-01-31T06:02:20.073Z,0.9
2023-01-31T06:03:28.803Z,1.4
2023-01-31T06:04:38.384Z,1
2023-01-31T06:05:47.049Z,1.1
2023-01-31T06:06:56.750Z,1.1
2023-01-31T06:08:05.466Z,1.2
2023-01-31T06:09:14.175Z,1
2023-01-31T06:10:23.789Z,0.9
2023-01-31T06:11:32.444Z,1
2023-01-31T06:12:40.103Z,1.1
2023-01-31T06:13:49.783Z,0.8
2023-01-31T06:14:58.497Z,1
2023-01-31T06:16:06.234Z,1.2
2023-01-31T06:17:15.876Z,1.2
2023-01-31T06:18:23.541Z,1.1
2023-01-31T06:19:33.237Z,1.1
2023-01-31T06:20:42.907Z,1.5
2023-01-31T06:21:51.584Z,1.6
2023-01-31T06:23:01.244Z,1.5
2023-01-31T06:24:09.968Z,1.4
2023-01-31T06:25:17.744Z,1.2
2023-01-31T06:26:27.384Z,1.5
2023-01-31T06:27:36.072Z,1.3
2023-01-31T06:28:46.368Z,1.5
2023-01-31T06:29:55.411Z,1.5
2023-01-31T06:31:03.342Z,1.6
2023-01-31T06:32:12.777Z,1.2
2023-01-31T06:33:22.703Z,1.4
2023-01-31T06:34:31.716Z,1.2
2023-01-31T06:35:40.821Z,1.3
2023-01-31T06:36:48.479Z,1.4
2023-01-31T06:37:57.195Z,1.4
2023-01-31T06:39:06.877Z,1.2
2023-01-31T06:40:16.557Z,1.5
2023-01-31T06:41:26.253Z,1.7
2023-01-31T06:42:34.911Z,1.3
2023-01-31T06:43:43.592Z,1.3
2023-01-31T06:44:53.276Z,0.8
2023-01-31T06:46:00.987Z,0.9
2023-01-31T06:47:10.714Z,1.3
2023-01-31T06:48:20.384Z,0.9
2023-01-31T06:49:28.104Z,1.2
2023-01-31T06:50:37.778Z,1
2023-01-31T06:51:47.460Z,1.1
2023-01-31T06:52:55.158Z,0.9
2023-01-31T06:54:04.868Z,0.9
2023-01-31T06:55:14.546Z,0.9
2023-01-31T06:56:22.219Z,0.9
2023-01-31T06:57:31.973Z,1
2023-01-31T06:58:39.635Z,0.9
2023-01-31T06:59:49.373Z,0.9
2023-01-31T07:00:58.054Z,0.9
2023-01-31T07:02:05.733Z,1.3
2023-01-31T07:03:16.404Z,1.2
2023-01-31T07:04:24.107Z,1.2
2023-01-31T07:05:32.709Z,1
2023-01-31T07:06:42.431Z,1.4
2023-01-31T07:07:50.074Z,0.9
2023-01-31T07:08:59.748Z,1.2
2023-01-31T07:10:08.410Z,1.2
2023-01-31T07:11:17.090Z,1.4
2023-01-31T07:12:26.777Z,0.9
2023-01-31T07:13:36.476Z,1.1
2023-01-31T07:14:46.140Z,1.4
2023-01-31T07:15:55.929Z,1
2023-01-31T07:17:03.464Z,0.7
2023-01-31T07:18:13.153Z,0.5
2023-01-31T07:19:22.863Z,0.9
2023-01-31T07:20:30.518Z,0.9
2023-01-31T07:21:40.199Z,1
2023-01-31T07:22:47.883Z,1
2023-01-31T07:23:56.546Z,1.5
2023-01-31T07:25:06.210Z,1
2023-01-31T07:26:14.920Z,0.9
2023-01-31T07:27:24.569Z,1.1
2023-01-31T07:28:34.247Z,1.1
2023-01-31T07:29:42.940Z,1.4
2023-01-31T07:30:52.578Z,1
2023-01-31T07:32:01.341Z,0.8
2023-01-31T07:33:10.894Z,1.4
2023-01-31T07:34:20.578Z,1
2023-01-31T07:35:28.261Z,1.2
2023-01-31T07:36:37.944Z,1.3
2023-01-31T07:37:47.633Z,0.8
2023-01-31T07:38:56.376Z,0.8
2023-01-31T07:40:06.045Z,0.8
2023-01-31T07:41:15.746Z,1
2023-01-31T07:42:24.415Z,1
2023-01-31T07:43:34.115Z,1.3
2023-01-31T07:44:43.754Z,1.2
2023-01-31T07:45:53.474Z,1
2023-01-31T07:47:02.144Z,1.3
2023-01-31T07:48:10.815Z,1.6
2023-01-31T07:49:20.472Z,1.2
2023-01-31T07:50:29.747Z,0.9
2023-01-31T07:51:37.880Z,0.9
2023-01-31T07:52:47.846Z,0.7
2023-01-31T07:53:56.254Z,0.9
2023-01-31T07:55:05.951Z,1.2
2023-01-31T07:56:14.598Z,1.1
2023-01-31T07:57:23.261Z,1.3
2023-01-31T07:58:33.029Z,1.5
2023-01-31T07:59:40.596Z,1.5
2023-01-31T08:00:49.336Z,1.5
2023-01-31T08:01:58.999Z,1.1
2023-01-31T08:03:07.640Z,1.1
2023-01-31T08:04:22.280Z,1.1
2023-01-31T08:05:26.998Z,1.4
2023-01-31T08:06:36.636Z,1
2023-01-31T08:07:46.337Z,1.1
2023-01-31T08:08:54.988Z,1.2
2023-01-31T08:10:03.674Z,1.4
2023-01-31T08:11:13.332Z,1.7
2023-01-31T08:12:23.001Z,1.6
2023-01-31T08:13:31.736Z,1.5
2023-01-31T08:14:41.316Z,1.1
2023-01-31T08:15:51.019Z,1.7
2023-01-31T08:17:00.761Z,0.7
2023-01-31T08:18:10.418Z,0.8
2023-01-31T08:19:18.074Z,1.9
2023-01-31T08:20:27.735Z,1.1
2023-01-31T08:21:36.423Z,1.4
2023-01-31T08:22:44.595Z,2.2
2023-01-31T08:23:53.799Z,1.3
2023-01-31T08:25:01.447Z,2.2
2023-01-31T08:26:10.156Z,1.3
2023-01-31T08:27:19.846Z,1.3
2023-01-31T08:28:29.523Z,1
2023-01-31T08:29:39.204Z,1.3
2023-01-31T08:30:59.262Z,1.1
2023-01-31T08:31:59.660Z,1.4
2023-01-31T08:33:09.212Z,1.6
2023-01-31T08:34:16.912Z,1.7
2023-01-31T08:35:25.566Z,1.9
2023-01-31T08:36:35.271Z,1.8
2023-01-31T08:37:44.899Z,1.4
2023-01-31T08:38:54.661Z,2.2
2023-01-31T08:40:04.223Z,3.2
2023-01-31T08:41:13.852Z,3
2023-01-31T08:42:23.528Z,2.3
2023-01-31T08:43:35.676Z,2.6
2023-01-31T08:44:40.936Z,3.6
2023-01-31T08:45:50.613Z,1.3
2023-01-31T08:46:58.308Z,3.2
2023-01-31T08:48:07.975Z,6.3
2023-01-31T08:49:16.634Z,1.4
2023-01-31T08:50:28.078Z,1.3
2023-01-31T08:51:36.952Z,1.9
2023-01-31T08:52:46.038Z,2.2
2023-01-31T08:53:55.307Z,1.7
2023-01-31T08:55:04.957Z,1.1
2023-01-31T08:56:13.653Z,1
2023-01-31T08:57:23.327Z,1
2023-01-31T08:58:32.296Z,1.1
2023-01-31T08:59:39.652Z,0.9
2023-01-31T09:00:49.359Z,1.4
2023-01-31T09:01:57.063Z,1.4
2023-01-31T09:03:05.803Z,1.4
2023-01-31T09:04:15.395Z,1.4
2023-01-31T09:05:25.086Z,0.8
2023-01-31T09:06:34.782Z,0.5
2023-01-31T09:07:44.442Z,1
2023-01-31T09:08:52.093Z,1.1
2023-01-31T09:10:01.779Z,1.2
2023-01-31T09:11:11.479Z,1.7
2023-01-31T09:12:20.143Z,2.1
2023-01-31T09:13:30.191Z,7.3
2023-01-31T09:14:39.055Z,6.1
2023-01-31T09:15:48.266Z,1.6
2023-01-31T09:16:58.046Z,1.4
2023-01-31T09:18:05.639Z,1.9
2023-01-31T09:19:15.358Z,0.7
2023-01-31T09:20:24.149Z,1.7
2023-01-31T09:21:33.743Z,2.6
2023-01-31T09:22:43.428Z,2.4
2023-01-31T09:23:51.067Z,1.7
2023-01-31T09:25:00.783Z,1
2023-01-31T09:26:09.463Z,0.9
2023-01-31T09:27:18.146Z,1.5
2023-01-31T09:28:27.866Z,1.6
2023-01-31T09:29:37.620Z,1.1
2023-01-31T09:30:47.273Z,1
2023-01-31T09:31:56.992Z,1.4
2023-01-31T09:33:04.667Z,1.4
2023-01-31T09:34:15.344Z,0.9
2023-01-31T09:35:25.043Z,1.1
2023-01-31T09:36:34.830Z,0.8
2023-01-31T09:37:44.506Z,1.3
2023-01-31T09:38:54.247Z,1.7
2023-01-31T09:40:02.885Z,1.6
2023-01-31T09:41:12.553Z,1.1
2023-01-31T09:42:22.292Z,1.4
2023-01-31T09:43:31.012Z,2.9
2023-01-31T09:44:39.620Z,3
2023-01-31T09:45:49.301Z,2.3
2023-01-31T09:46:59.000Z,1.3
2023-01-31T09:48:07.745Z,0.8
2023-01-31T09:49:16.429Z,0.7
2023-01-31T09:50:25.082Z,1.2
2023-01-31T09:51:33.050Z,1.2
2023-01-31T09:52:42.479Z,1.4
2023-01-31T09:53:51.205Z,2.1
2023-01-31T09:54:58.861Z,3.2
2023-01-31T09:56:08.521Z,1.7
2023-01-31T09:57:18.187Z,2.4
2023-01-31T09:58:26.867Z,1.4
2023-01-31T09:59:36.948Z,0.8
2023-01-31T10:00:45.246Z,0.6
2023-01-31T10:01:54.881Z,0.6
2023-01-31T10:03:04.518Z,0.6
2023-01-31T10:04:13.222Z,0.7
2023-01-31T10:05:23.208Z,0.9
2023-01-31T10:06:31.707Z,0.7
2023-01-31T10:07:41.199Z,0.6
2023-01-31T10:08:50.905Z,0.8
2023-01-31T10:09:59.558Z,0.5
2023-01-31T10:11:07.369Z,0.7
2023-01-31T10:12:16.942Z,0.6
2023-01-31T10:13:26.631Z,0.8
2023-01-31T10:14:35.310Z,1
2023-01-31T10:15:45.054Z,0.8
2023-01-31T10:16:53.740Z,1.7
2023-01-31T10:18:02.454Z,1.5
2023-01-31T10:19:12.075Z,1.7
2023-01-31T10:20:21.050Z,4.6
2023-01-31T10:21:30.417Z,1.6
2023-01-31T10:22:39.172Z,0.6
2023-01-31T10:23:47.837Z,0.7
2023-01-31T10:24:57.499Z,0.6
2023-01-31T10:26:08.358Z,0.8
2023-01-31T10:27:17.872Z,1.3
2023-01-31T10:28:27.859Z,2.4
2023-01-31T10:29:36.343Z,2.2
2023-01-31T10:30:46.031Z,2
2023-01-31T10:31:54.682Z,2.1
2023-01-31T10:33:04.329Z,2.1
2023-01-31T10:34:14.024Z,2
2023-01-31T10:35:22.725Z,2
2023-01-31T10:36:32.416Z,1.8
2023-01-31T10:37:41.781Z,1.9
2023-01-31T10:38:50.744Z,1
2023-01-31T10:40:00.450Z,0.6
2023-01-31T10:41:08.115Z,1.1
2023-01-31T10:42:16.777Z,0.8
2023-01-31T10:43:26.472Z,0.9
2023-01-31T10:44:34.124Z,1.1
2023-01-31T10:45:42.921Z,2
2023-01-31T10:46:52.554Z,2
2023-01-31T10:48:01.251Z,1.9
2023-01-31T10:49:10.889Z,3.6
2023-01-31T10:50:18.983Z,1.9
2023-01-31T10:51:26.265Z,3.1
2023-01-31T10:52:35.973Z,3.2
2023-01-31T10:53:43.965Z,2.8
2023-01-31T10:54:53.279Z,2.7
2023-01-31T10:56:01.957Z,1.8
2023-01-31T10:57:10.671Z,1.8
2023-01-31T10:58:20.342Z,1.4
2023-01-31T10:59:29.022Z,1.4
2023-01-31T11:00:37.705Z,1.3
2023-01-31T11:01:47.385Z,0.7
2023-01-31T11:02:55.129Z,0.9
2023-01-31T11:04:04.821Z,0.7
2023-01-31T11:05:14.496Z,0.7
2023-01-31T11:06:23.224Z,0.8
2023-01-31T11:07:32.892Z,0.7
2023-01-31T11:08:40.573Z,0.6
2023-01-31T11:09:49.247Z,0.7
2023-01-31T11:10:58.944Z,0.7
2023-01-31T11:12:07.610Z,0.8
2023-01-31T11:13:17.289Z,0.6
2023-01-31T11:14:26.021Z,0.6
2023-01-31T11:15:34.737Z,0.6
2023-01-31T11:16:44.465Z,0.6
2023-01-31T11:17:54.071Z,0.7
2023-01-31T11:19:03.757Z,0.7
2023-01-31T11:20:13.475Z,0.9
2023-01-31T11:21:22.147Z,0.9
2023-01-31T11:22:31.858Z,0.9
2023-01-31T11:23:40.528Z,1
2023-01-31T11:24:49.209Z,0.9
2023-01-31T11:25:58.904Z,1
2023-01-31T11:27:07.574Z,0.9
2023-01-31T11:28:17.222Z,1
2023-01-31T11:29:26.978Z,0.9
2023-01-31T11:30:36.785Z,0.9
2023-01-31T11:31:46.401Z,1
2023-01-31T11:32:55.040Z,0.9
2023-01-31T11:34:04.740Z,1.1
2023-01-31T11:35:14.412Z,1
2023-01-31T11:36:23.121Z,0.9
2023-01-31T11:37:34.491Z,2.5
2023-01-31T11:38:42.486Z,2.7
2023-01-31T11:39:51.167Z,2.5
2023-01-31T11:41:00.836Z,1.5
2023-01-31T11:42:09.509Z,1.9
2023-01-31T11:43:17.182Z,2.3
2023-01-31T11:44:26.838Z,2.1
2023-01-31T11:45:34.520Z,2.3
2023-01-31T11:46:43.211Z,2.1
2023-01-31T11:47:52.877Z,1.7
2023-01-31T11:49:02.533Z,1.9
2023-01-31T11:50:12.220Z,2.1
2023-01-31T11:51:20.872Z,2.2
2023-01-31T11:52:28.533Z,1.8
2023-01-31T11:53:38.251Z,2
2023-01-31T11:54:46.969Z,1.8
2023-01-31T11:55:55.640Z,1
2023-01-31T11:57:05.303Z,1.2
2023-01-31T11:58:13.999Z,1.5
2023-01-31T11:59:22.673Z,1
2023-01-31T12:00:31.336Z,1.3
2023-01-31T12:01:39.041Z,1.3
2023-01-31T12:02:48.752Z,0.9
2023-01-31T12:04:02.872Z,0.9
2023-01-31T12:05:09.106Z,0.8
2023-01-31T12:06:18.798Z,1
2023-01-31T12:07:27.495Z,1.1
2023-01-31T12:08:35.145Z,1.4
2023-01-31T12:09:44.851Z,1.3
2023-01-31T12:10:54.506Z,1
2023-01-31T12:12:06.438Z,0.9
2023-01-31T12:13:18.776Z,1.3
2023-01-31T12:14:23.563Z,1.4
2023-01-31T12:15:33.282Z,0.9
2023-01-31T12:16:42.965Z,1.6
2023-01-31T12:17:52.659Z,1.7
2023-01-31T12:19:02.305Z,1.1
2023-01-31T12:20:26.889Z,0.9
2023-01-31T12:21:22.599Z,1.3
2023-01-31T12:22:32.255Z,1.4
2023-01-31T12:23:40.930Z,1.3
2023-01-31T12:24:49.609Z,1.4
2023-01-31T12:25:58.246Z,1.4
2023-01-31T12:27:06.971Z,1.9
2023-01-31T12:28:16.640Z,2.2
2023-01-31T12:29:26.384Z,1.4
2023-01-31T12:30:35.128Z,1.4
2023-01-31T12:31:44.852Z,1.5
2023-01-31T12:32:53.428Z,2.4
2023-01-31T12:34:02.146Z,2.7
2023-01-31T12:35:11.777Z,1.8
2023-01-31T12:36:20.441Z,1
2023-01-31T12:37:30.119Z,1.2
2023-01-31T12:38:38.825Z,1
2023-01-31T12:39:48.493Z,3.6
2023-01-31T12:40:58.197Z,2.5
2023-01-31T12:42:07.907Z,2.5
2023-01-31T12:43:17.566Z,1.8
2023-01-31T12:44:27.242Z,2.9
2023-01-31T12:45:35.903Z,1.6
2023-01-31T12:46:45.614Z,1.9
2023-01-31T12:47:54.286Z,2.4
2023-01-31T12:49:02.943Z,2
2023-01-31T12:50:13.663Z,2.2
2023-01-31T12:51:23.332Z,2.3
2023-01-31T12:52:34.598Z,4
2023-01-31T12:53:44.075Z,3.9
2023-01-31T12:54:52.770Z,2.7
2023-01-31T12:56:02.473Z,2.9
2023-01-31T12:57:12.117Z,2.8
2023-01-31T12:58:19.833Z,1.7
2023-01-31T12:59:29.520Z,2.1
2023-01-31T13:00:37.206Z,1.6
2023-01-31T13:01:45.875Z,1.8
2023-01-31T13:02:55.536Z,1.8
2023-01-31T13:04:04.207Z,1.8
2023-01-31T13:05:13.896Z,2.2
2023-01-31T13:06:23.599Z,2.8
2023-01-31T13:07:32.275Z,1.9
2023-01-31T13:08:44.100Z,2.5
2023-01-31T13:09:52.658Z,2.3
2023-01-31T13:11:02.326Z,2
2023-01-31T13:12:12.001Z,1.4
2023-01-31T13:13:19.654Z,2
2023-01-31T13:14:29.370Z,2.7
2023-01-31T13:15:39.137Z,2.1
2023-01-31T13:16:47.721Z,3
2023-01-31T13:17:55.376Z,2
2023-01-31T13:19:05.031Z,1.3
2023-01-31T13:20:13.709Z,1.5
2023-01-31T13:21:23.444Z,1.2
2023-01-31T13:22:33.176Z,0.9
2023-01-31T13:23:42.820Z,1.1
2023-01-31T13:24:51.498Z,0.7
2023-01-31T13:26:01.156Z,1
2023-01-31T13:27:10.883Z,0.7
2023-01-31T13:28:20.565Z,1.4
2023-01-31T13:29:29.239Z,1.1
2023-01-31T13:30:37.980Z,1
2023-01-31T13:31:47.688Z,2
2023-01-31T13:32:56.401Z,1.7
2023-01-31T13:34:05.047Z,1.8
2023-01-31T13:35:14.728Z,2.5
2023-01-31T13:36:22.381Z,2
2023-01-31T13:37:32.066Z,2.2
2023-01-31T13:38:40.797Z,1.6
2023-01-31T13:39:49.416Z,2.1
2023-01-31T13:40:59.110Z,2.2
2023-01-31T13:42:06.811Z,1.6
2023-01-31T13:43:16.475Z,2
2023-01-31T13:44:26.195Z,1.5
2023-01-31T13:45:34.892Z,2.5
2023-01-31T13:46:44.661Z,2.3
2023-01-31T13:47:53.198Z,1.7
2023-01-31T13:49:01.878Z,1.5
2023-01-31T13:50:11.562Z,2.4
2023-01-31T13:51:19.216Z,1.3
2023-01-31T13:52:27.873Z,1.6
2023-01-31T13:53:37.539Z,0.7
2023-01-31T13:54:47.325Z,0.8
2023-01-31T13:55:56.993Z,0.9
2023-01-31T13:57:05.673Z,0.5
2023-01-31T13:58:14.402Z,0.6
2023-01-31T13:59:24.090Z,0.8
2023-01-31T14:00:32.774Z,0.6
2023-01-31T14:01:41.559Z,1.2
2023-01-31T14:02:51.224Z,0.9
2023-01-31T14:03:59.899Z,1
2023-01-31T14:05:08.560Z,1.7
2023-01-31T14:06:18.234Z,1.3
2023-01-31T14:07:27.973Z,1.5
2023-01-31T14:08:36.656Z,1.7
2023-01-31T14:09:47.782Z,2.1
2023-01-31T14:10:57.485Z,3
2023-01-31T14:12:07.240Z,3
2023-01-31T14:13:15.940Z,3.3
2023-01-31T14:14:24.619Z,2.9
2023-01-31T14:15:34.349Z,1.9
2023-01-31T14:16:42.070Z,2.8
2023-01-31T14:17:51.802Z,2.2
2023-01-31T14:19:01.563Z,2.2
2023-01-31T14:20:11.203Z,2.9
2023-01-31T14:21:20.904Z,1.8
2023-01-31T14:22:33.059Z,1.7
2023-01-31T14:23:40.352Z,1.6
2023-01-31T14:24:50.131Z,1.2
2023-01-31T14:25:58.762Z,1.4
2023-01-31T14:27:08.479Z,1.5
2023-01-31T14:28:18.153Z,1.4
2023-01-31T14:29:27.832Z,1.2
2023-01-31T14:30:37.622Z,1.1
2023-01-31T14:31:47.293Z,1.2
2023-01-31T14:32:56.962Z,1.1
2023-01-31T14:34:06.625Z,1.4
2023-01-31T14:35:15.287Z,1.2
2023-01-31T14:36:24.003Z,1.1
2023-01-31T14:37:33.766Z,1.4
2023-01-31T14:38:41.421Z,1.2
2023-01-31T14:39:51.119Z,1.1
2023-01-31T14:40:59.810Z,1.2
2023-01-31T14:42:08.615Z,1.2
2023-01-31T14:43:18.333Z,1.1
2023-01-31T14:44:28.675Z,1.2
2023-01-31T14:45:36.724Z,1.1
2023-01-31T14:46:46.415Z,1
2023-01-31T14:47:55.153Z,1.2
2023-01-31T14:49:05.991Z,1.1
2023-01-31T14:50:15.626Z,1.5
2023-01-31T14:51:24.271Z,1.1
2023-01-31T14:52:33.944Z,1
2023-01-31T14:53:42.647Z,0.8
2023-01-31T14:54:52.341Z,0.8
2023-01-31T14:56:00.991Z,0.7
2023-01-31T14:57:09.687Z,0.7
2023-01-31T14:58:20.372Z,1.3
2023-01-31T14:59:29.245Z,0.8
2023-01-31T15:00:37.983Z,1
2023-01-31T15:01:47.666Z,0.9
2023-01-31T15:02:56.426Z,1
2023-01-31T15:04:05.044Z,1.3
2023-01-31T15:05:14.737Z,1.2
2023-01-31T15:06:22.412Z,1.4
2023-01-31T15:07:32.134Z,1
2023-01-31T15:08:40.861Z,1.4
2023-01-31T15:09:49.575Z,1.2
2023-01-31T15:10:59.278Z,1.3
2023-01-31T15:12:07.977Z,1.3
2023-01-31T15:13:14.707Z,1.6
2023-01-31T15:14:33.687Z,1.3
2023-01-31T15:15:35.104Z,1.5
2023-01-31T15:16:44.818Z,1.2
2023-01-31T15:17:54.436Z,1.3
2023-01-31T15:19:02.178Z,1.2
2023-01-31T15:20:11.852Z,1.6
2023-01-31T15:21:21.537Z,1.3
2023-01-31T15:22:31.228Z,1.4
2023-01-31T15:23:40.930Z,1.5
2023-01-31T15:24:49.611Z,1.6
2023-01-31T15:25:59.280Z,1.4
2023-01-31T15:27:07.987Z,1.6
2023-01-31T15:28:16.674Z,1.6
2023-01-31T15:29:26.374Z,1.5
2023-01-31T15:30:36.115Z,1.2
2023-01-31T15:31:44.884Z,1.3
2023-01-31T15:32:54.452Z,1.6
2023-01-31T15:34:02.167Z,1.3
2023-01-31T15:35:10.899Z,1.6
2023-01-31T15:36:20.612Z,1.8
2023-01-31T15:37:29.298Z,1.9
2023-01-31T15:38:38.995Z,1.8
2023-01-31T15:39:47.712Z,2.1
2023-01-31T15:40:57.377Z,1.7
2023-01-31T15:42:07.062Z,1.5
2023-01-31T15:43:15.738Z,1.7
2023-01-31T15:44:25.477Z,1.7
2023-01-31T15:45:34.198Z,1.7
2023-01-31T15:46:43.903Z,1.8
2023-01-31T15:47:53.630Z,1.5
2023-01-31T15:49:03.369Z,1.6
2023-01-31T15:50:12.094Z,1.7
2023-01-31T15:51:21.791Z,1.8
2023-01-31T15:52:31.482Z,1.6
2023-01-31T15:53:41.180Z,1.3
2023-01-31T15:54:50.906Z,1.2
2023-01-31T15:55:59.601Z,1.6
2023-01-31T15:57:09.363Z,1.6
2023-01-31T15:58:18.059Z,1.5
2023-01-31T15:59:27.745Z,1.3
2023-01-31T16:00:37.409Z,1.6
2023-01-31T16:01:47.111Z,2
2023-01-31T16:02:54.880Z,1.6